map of TRV home
Great Circle Mapper logo
TRV - Airport
Location
City:  Trivandrum, India
Name:Thiruvananthapuram International Airport
ICAO / IATA:VOTV / TRV

Details
Type:Airport (Aerodrome, Airfield)
Use:Public/Civil, International (customs port of entry)
Latitude:8°28'56"N (8.482122)
Longitude:76°55'12"E (76.920114)
Datum:WGS 1984
Elevation:15 ft (5 m)
Runways:1
Longest:11148 × 150 ft (3398 × 45.5 m), paved

Time
Time Zone:UTC+5:30
Local Time:

Weather
METAR:VOTV 311640Z 27004KT 3000 HZ SCT012 BKN090 26/24 Q1010 NOSIG
TAF:VOTV 311500Z 3118/0124 34005KT 3000 HZ SCT015 SCT090
TEMPO 3123/0103 2000 SHRA/RA SCT010 FEW025CB OVC080
BECMG 0105/0106 27010KT 5000 HZ
TEMPO 0109/0113 2000 TSRA/RA SCT010 FEW025CB OVC080
BECMG 0113/0114 4000 HZ

Related Locations
Nearby:
Farthest:SEII: 11462 mi / 18446 km
Puerto Villamil [General Villamil], Isabela Island, Galápagos Islands, EC

Find:

   beyond  
but within

Other Information
Maps:
NOTAMs:
Links:
Sources:

  
flag of India   

Sectional Chart

Flight Planning
at skyvector.com

Satellite Image

Google Maps Satellite View

 

Copyright © 2004-2014 Karl L. Swartz. All rights reserved.
The Great Circle Mapper name and logo are trademarks of the Great Circle Mapper.
All other trademarks mentioned herein belong to their respective owners.
Please see credits for attibutions and further copyright information.

  Follow gcmap on Facebook Follow gcmap on Twitter

hCard Microformat

Geo Microformat